GOOY/DKR METAR and TAF weather

Enter ICAO airport designator
Station Type Date Time Source
GOOY METAR 2021/01/17 19:00 UTC NOAA

GOOY 171900Z 04014KT CAVOK 20/11 Q1010


Station Type Date Time Source
GOOY Decoded METAR 2021/01/17 19:00 UTC NOAA

Dakar / Yoff, Senegal (GOOY) 14-44N 017-30W 24M
Jan 17, 2021 - 02:00 PM EST / 2021.01.17 1900 UTC
Wind: from the NE (040 degrees) at 16 MPH (14 KT):0
Visibility: greater than 7 mile(s):0
Temperature: 68 F (20 C)
Dew Point: 51 F (11 C)
Relative Humidity: 56%
Pressure (altimeter): 29.83 in. Hg (1010 hPa)
ob: GOOY 171900Z 04014KT CAVOK 20/11 Q1010
cycle: 19

Station Type Date Time Source
GOOY TAF 2021/01/17 18:30 UTC NOAA

TAF GOOY 171730Z 1718/1824 03012KT 8000 NSC

Example: see airport list